createdAt,value
2022-09-20T00:00:18.770Z,8.79
2022-09-20T00:02:48.937Z,8.76
2022-09-20T00:05:22.146Z,8.75
2022-09-20T00:07:52.944Z,8.72
2022-09-20T00:10:23.283Z,8.70
2022-09-20T00:12:53.471Z,8.71
2022-09-20T00:15:23.636Z,8.72
2022-09-20T00:17:53.901Z,8.65
2022-09-20T00:20:29.261Z,8.69
2022-09-20T00:22:59.471Z,8.62
2022-09-20T00:25:30.005Z,8.59
2022-09-20T00:28:00.262Z,8.58
2022-09-20T00:30:31.543Z,8.57
2022-09-20T00:33:01.883Z,8.59
2022-09-20T00:35:32.117Z,8.59
2022-09-20T00:38:02.305Z,8.60
2022-09-20T00:40:32.571Z,8.61
2022-09-20T00:43:02.828Z,8.63
2022-09-20T00:45:34.252Z,8.65
2022-09-20T00:48:08.093Z,8.63
2022-09-20T00:50:45.102Z,8.67
2022-09-20T00:53:20.771Z,8.66
2022-09-20T00:55:57.063Z,8.61
2022-09-20T00:58:30.259Z,8.62
2022-09-20T01:01:01.051Z,8.65
2022-09-20T01:03:33.927Z,8.59
2022-09-20T01:06:11.349Z,8.70
2022-09-20T01:08:44.924Z,8.67
2022-09-20T01:11:15.268Z,8.65
2022-09-20T01:13:45.489Z,8.69
2022-09-20T01:16:18.598Z,8.70
2022-09-20T01:18:50.949Z,8.69
2022-09-20T01:21:24.557Z,8.72
2022-09-20T01:24:03.990Z,8.70
2022-09-20T01:27:01.042Z,8.66
2022-09-20T01:29:50.952Z,8.63
2022-09-20T01:32:26.529Z,8.64
2022-09-20T01:35:03.029Z,8.61
2022-09-20T01:37:45.336Z,8.56
2022-09-20T01:40:25.051Z,8.58
2022-09-20T01:43:05.592Z,8.59
2022-09-20T01:45:39.212Z,8.56
2022-09-20T01:48:21.728Z,8.54
2022-09-20T01:51:13.642Z,8.52
2022-09-20T01:54:13.699Z,8.53
2022-09-20T01:57:10.918Z,8.56
2022-09-20T02:00:08.927Z,8.46
2022-09-20T02:03:18.101Z,8.56
2022-09-20T02:06:20.852Z,8.54
2022-09-20T02:09:30.584Z,8.56
2022-09-20T02:12:21.211Z,8.57
2022-09-20T02:15:00.585Z,8.55
2022-09-20T02:17:38.737Z,8.55
2022-09-20T02:20:30.884Z,8.55
2022-09-20T02:23:15.153Z,8.54
2022-09-20T02:26:13.520Z,8.60
2022-09-20T02:28:58.429Z,8.61
2022-09-20T02:31:56.863Z,8.69
2022-09-20T02:34:54.284Z,8.70
2022-09-20T02:38:02.930Z,8.79
2022-09-20T02:40:59.477Z,8.83
2022-09-20T02:43:37.180Z,8.90
2022-09-20T02:46:13.606Z,8.93
2022-09-20T02:48:50.943Z,8.95
2022-09-20T02:51:28.211Z,8.98
2022-09-20T02:54:15.330Z,9.02
2022-09-20T02:56:55.778Z,9.07
2022-09-20T02:59:35.903Z,9.11
2022-09-20T03:02:18.429Z,9.12
2022-09-20T03:05:04.935Z,9.16
2022-09-20T03:07:44.688Z,9.17
2022-09-20T03:10:25.560Z,9.15
2022-09-20T03:13:13.582Z,9.15
2022-09-20T03:15:56.953Z,9.18
2022-09-20T03:18:37.154Z,9.21
2022-09-20T03:21:20.070Z,9.10
2022-09-20T03:24:00.060Z,9.15
2022-09-20T03:26:46.934Z,9.21
2022-09-20T03:29:35.549Z,9.28
2022-09-20T03:32:18.367Z,9.29
2022-09-20T03:35:00.900Z,9.26
2022-09-20T03:37:49.464Z,9.28
2022-09-20T03:40:42.916Z,9.25
2022-09-20T03:43:29.806Z,9.20
2022-09-20T03:46:13.606Z,9.19
2022-09-20T03:49:24.499Z,9.12
2022-09-20T03:52:06.092Z,9.11
2022-09-20T03:54:57.584Z,9.11
2022-09-20T03:58:06.899Z,9.02
2022-09-20T04:00:56.185Z,9.03
2022-09-20T04:03:35.436Z,9.04
2022-09-20T04:06:21.048Z,9.05
2022-09-20T04:09:27.574Z,9.06
2022-09-20T04:12:07.004Z,9.10
2022-09-20T04:14:46.186Z,9.13
2022-09-20T04:17:31.074Z,9.14
2022-09-20T04:20:06.706Z,9.16
2022-09-20T04:22:37.524Z,9.20
2022-09-20T04:25:16.230Z,9.21
2022-09-20T04:27:51.990Z,9.27
2022-09-20T04:30:27.043Z,9.24
2022-09-20T04:33:04.489Z,9.41
2022-09-20T04:35:56.081Z,9.50
2022-09-20T04:38:27.088Z,9.68
2022-09-20T04:41:20.756Z,9.87
2022-09-20T04:44:22.294Z,10.03
2022-09-20T04:47:32.027Z,10.20
2022-09-20T04:50:33.713Z,10.38
2022-09-20T04:53:41.598Z,10.56
2022-09-20T04:56:24.508Z,10.72
2022-09-20T04:59:10.362Z,10.91
2022-09-20T05:02:15.759Z,11.07
2022-09-20T05:05:21.147Z,11.21
2022-09-20T05:08:21.287Z,11.33
2022-09-20T05:11:15.606Z,11.25
2022-09-20T05:14:02.498Z,11.16
2022-09-20T05:16:46.773Z,10.96
2022-09-20T05:19:30.365Z,10.95
2022-09-20T05:22:27.741Z,10.90
2022-09-20T05:25:27.861Z,10.91
2022-09-20T05:28:09.245Z,10.89
2022-09-20T05:30:47.063Z,11.02
2022-09-20T05:33:25.691Z,11.08
2022-09-20T05:36:08.066Z,11.17
2022-09-20T05:38:50.942Z,11.21
2022-09-20T05:41:32.076Z,11.17
2022-09-20T05:44:16.774Z,11.34
2022-09-20T05:46:57.947Z,11.59
2022-09-20T05:49:42.805Z,11.72
2022-09-20T05:52:32.959Z,11.93
2022-09-20T05:55:21.353Z,12.09
2022-09-20T05:58:06.382Z,12.27
2022-09-20T06:00:45.654Z,12.24
2022-09-20T06:03:27.617Z,12.08
2022-09-20T06:06:05.529Z,12.64
2022-09-20T06:09:13.668Z,12.95
2022-09-20T06:12:02.538Z,13.26
2022-09-20T06:14:43.367Z,13.88
2022-09-20T06:17:28.877Z,14.24
2022-09-20T06:20:14.117Z,14.49
2022-09-20T06:22:47.381Z,15.10
2022-09-20T06:25:22.860Z,15.26
2022-09-20T06:27:56.833Z,15.55
2022-09-20T06:30:29.502Z,15.40
2022-09-20T06:33:04.108Z,15.31
2022-09-20T06:35:41.502Z,15.17
2022-09-20T06:38:42.745Z,15.66
2022-09-20T06:41:26.399Z,15.76
2022-09-20T06:43:59.274Z,15.38
2022-09-20T06:46:30.766Z,15.60
2022-09-20T06:49:04.804Z,15.46
2022-09-20T06:51:38.278Z,15.77
2022-09-20T06:54:15.715Z,16.38
2022-09-20T06:56:47.915Z,16.87
2022-09-20T06:59:18.194Z,16.87
2022-09-20T07:01:49.528Z,17.27
2022-09-20T07:04:22.392Z,16.89
2022-09-20T07:06:52.601Z,16.60
2022-09-20T07:09:22.963Z,16.94
2022-09-20T07:11:53.169Z,17.09
2022-09-20T07:14:23.319Z,16.98
2022-09-20T07:16:56.586Z,16.68
2022-09-20T07:19:29.432Z,17.20
2022-09-20T07:21:59.630Z,17.66
2022-09-20T07:24:31.223Z,17.99
2022-09-20T07:27:03.128Z,18.34
2022-09-20T07:29:35.312Z,18.50
2022-09-20T07:32:05.682Z,18.52
2022-09-20T07:34:38.548Z,18.82
2022-09-20T07:37:08.721Z,18.53
2022-09-20T07:39:39.002Z,17.89
2022-09-20T07:42:09.541Z,18.14
2022-09-20T07:44:42.696Z,18.82
2022-09-20T07:47:14.742Z,18.93
2022-09-20T07:49:47.573Z,18.52
2022-09-20T07:52:17.696Z,18.47
2022-09-20T07:54:48.646Z,19.22
2022-09-20T07:57:19.364Z,19.77
2022-09-20T07:59:49.521Z,19.85
2022-09-20T08:02:19.852Z,19.82
2022-09-20T08:04:52.659Z,19.96
2022-09-20T08:07:22.879Z,19.94
2022-09-20T08:09:53.115Z,19.14
2022-09-20T08:15:14.218Z,18.62
2022-09-20T08:17:44.625Z,19.09
2022-09-20T08:20:18.452Z,19.11
2022-09-20T08:23:06.426Z,18.46
2022-09-20T08:25:39.598Z,19.10
2022-09-20T08:28:09.909Z,19.43
2022-09-20T08:30:40.131Z,19.33
2022-09-20T08:33:11.691Z,19.46
2022-09-20T08:35:44.470Z,19.52
2022-09-20T08:41:08.903Z,18.94
2022-09-20T08:43:45.634Z,19.20
2022-09-20T08:46:23.279Z,19.53
2022-09-20T08:48:55.163Z,19.82
2022-09-20T08:51:33.327Z,19.31
2022-09-20T08:54:04.706Z,19.46
2022-09-20T08:56:39.174Z,19.58
2022-09-20T08:59:17.559Z,19.14
2022-09-20T09:01:48.827Z,18.64
2022-09-20T09:04:21.513Z,18.62
2022-09-20T09:06:55.444Z,18.74
2022-09-20T09:09:29.255Z,18.96
2022-09-20T09:12:00.109Z,19.46
2022-09-20T09:14:44.727Z,20.12
2022-09-20T09:17:17.000Z,19.93
2022-09-20T09:19:49.837Z,19.78
2022-09-20T09:22:29.373Z,20.24
2022-09-20T09:25:32.331Z,20.71
2022-09-20T09:28:06.151Z,21.13
2022-09-20T09:30:36.988Z,21.35
2022-09-20T09:33:26.663Z,21.72
2022-09-20T09:36:02.176Z,21.48
2022-09-20T09:38:37.090Z,21.51
2022-09-20T09:41:09.043Z,21.45
2022-09-20T09:43:40.886Z,21.05
2022-09-20T09:46:29.659Z,21.87
2022-09-20T09:49:15.547Z,22.03
2022-09-20T09:52:03.946Z,21.48
2022-09-20T09:54:40.098Z,20.85
2022-09-20T09:57:26.509Z,20.19
2022-09-20T10:00:29.038Z,20.27
2022-09-20T10:03:31.866Z,19.93
2022-09-20T10:06:13.918Z,19.96
2022-09-20T10:08:56.006Z,19.91
2022-09-20T10:11:40.456Z,20.03
2022-09-20T10:14:26.651Z,19.97
2022-09-20T10:17:12.507Z,19.82
2022-09-20T10:20:06.659Z,19.79
2022-09-20T10:23:26.553Z,19.63
2022-09-20T10:25:48.196Z,19.80
2022-09-20T10:28:38.076Z,19.76
2022-09-20T10:31:23.557Z,19.98
2022-09-20T10:34:20.010Z,20.23
2022-09-20T10:36:52.684Z,20.11
2022-09-20T10:39:28.215Z,20.13
2022-09-20T10:42:21.373Z,19.66
2022-09-20T10:45:10.355Z,19.96
2022-09-20T10:47:49.845Z,20.26
2022-09-20T10:50:30.799Z,20.29
2022-09-20T10:53:16.091Z,20.79
2022-09-20T10:55:54.863Z,21.16
2022-09-20T10:58:52.121Z,21.52
2022-09-20T11:01:34.690Z,21.62
2022-09-20T11:04:27.369Z,21.47
2022-09-20T11:07:07.583Z,21.16
2022-09-20T11:09:43.837Z,21.82
2022-09-20T11:12:19.335Z,22.01
2022-09-20T11:14:54.086Z,21.75
2022-09-20T11:17:32.981Z,21.63
2022-09-20T11:20:11.787Z,20.90
2022-09-20T11:22:48.198Z,20.08
2022-09-20T11:25:26.050Z,18.36
2022-09-20T11:28:05.707Z,18.27
2022-09-20T11:30:39.414Z,16.69
2022-09-20T11:33:22.282Z,15.98
2022-09-20T11:35:56.134Z,15.66
2022-09-20T11:38:31.557Z,15.36
2022-09-20T11:41:08.827Z,14.95
2022-09-20T11:43:42.908Z,14.83
2022-09-20T11:46:16.732Z,15.04
2022-09-20T11:48:52.458Z,14.52
2022-09-20T11:51:49.769Z,14.01
2022-09-20T11:54:49.675Z,13.57
2022-09-20T11:57:20.175Z,13.21
2022-09-20T11:59:55.951Z,13.13
2022-09-20T12:02:37.208Z,13.18
2022-09-20T12:05:28.228Z,13.34
2022-09-20T12:08:01.525Z,13.38
2022-09-20T12:10:35.340Z,13.52
2022-09-20T12:13:08.861Z,13.51
2022-09-20T12:15:42.035Z,13.48
2022-09-20T12:18:33.708Z,13.55
2022-09-20T12:21:16.676Z,13.48
2022-09-20T12:24:04.820Z,13.47
2022-09-20T12:26:49.105Z,13.50
2022-09-20T12:29:34.326Z,13.70
2022-09-20T12:32:06.363Z,13.76
2022-09-20T12:34:40.383Z,13.80
2022-09-20T12:37:26.955Z,13.69
2022-09-20T12:39:58.837Z,13.46
2022-09-20T12:42:35.577Z,13.35
2022-09-20T12:45:10.095Z,13.24
2022-09-20T12:47:41.439Z,13.35
2022-09-20T12:50:30.564Z,13.49
2022-09-20T12:53:07.313Z,13.69
2022-09-20T12:55:42.558Z,13.83
2022-09-20T12:58:24.863Z,14.13
2022-09-20T13:01:33.303Z,14.40
2022-09-20T13:04:34.225Z,14.58
2022-09-20T13:07:35.913Z,14.79
2022-09-20T13:10:23.767Z,15.02
2022-09-20T13:13:00.343Z,15.15
2022-09-20T13:15:33.592Z,15.26
2022-09-20T13:18:05.801Z,15.32
2022-09-20T13:20:40.164Z,15.36
2022-09-20T13:23:17.039Z,15.40
2022-09-20T13:25:51.372Z,15.49
2022-09-20T13:28:34.848Z,15.49
2022-09-20T13:31:26.611Z,15.48
2022-09-20T13:33:57.570Z,15.44
2022-09-20T13:36:31.833Z,15.24
2022-09-20T13:39:03.194Z,15.24
2022-09-20T13:41:36.538Z,15.21
2022-09-20T13:44:07.435Z,15.05
2022-09-20T13:46:47.406Z,14.96
2022-09-20T13:49:21.098Z,14.91
2022-09-20T13:51:54.873Z,14.86
2022-09-20T13:54:30.629Z,14.68
2022-09-20T13:57:05.654Z,14.73
2022-09-20T13:59:39.501Z,14.86
2022-09-20T14:02:25.041Z,15.00
2022-09-20T14:04:58.653Z,15.07
2022-09-20T14:07:31.200Z,15.06
2022-09-20T14:10:01.889Z,14.94
2022-09-20T14:12:37.073Z,14.94
2022-09-20T14:15:12.855Z,14.93
2022-09-20T14:17:43.288Z,14.80
2022-09-20T14:20:18.306Z,14.89
2022-09-20T14:22:48.709Z,14.94
2022-09-20T14:25:25.577Z,14.97
2022-09-20T14:28:24.584Z,15.06
2022-09-20T14:31:09.362Z,15.16
2022-09-20T14:33:44.527Z,15.21
2022-09-20T14:36:18.109Z,15.28
2022-09-20T14:38:50.863Z,15.30
2022-09-20T14:41:29.574Z,15.31
2022-09-20T14:44:04.897Z,15.43
2022-09-20T14:46:38.920Z,15.35
2022-09-20T14:49:23.837Z,15.28
2022-09-20T14:51:53.786Z,15.29
2022-09-20T14:54:30.550Z,15.46
2022-09-20T14:57:01.788Z,15.50
2022-09-20T14:59:40.811Z,15.40
2022-09-20T15:02:17.333Z,15.29
2022-09-20T15:04:56.597Z,15.11
2022-09-20T15:07:27.052Z,15.13
2022-09-20T15:09:57.528Z,15.23
2022-09-20T15:12:29.381Z,15.30
2022-09-20T15:15:05.161Z,15.26
2022-09-20T15:17:35.828Z,15.11
2022-09-20T15:20:06.118Z,15.16
2022-09-20T15:22:36.360Z,15.22
2022-09-20T15:25:08.045Z,15.27
2022-09-20T15:27:38.337Z,15.19
2022-09-20T15:30:13.262Z,15.16
2022-09-20T15:32:44.019Z,15.11
2022-09-20T15:35:18.231Z,15.07
2022-09-20T15:37:48.874Z,15.03
2022-09-20T15:40:19.360Z,15.03
2022-09-20T15:42:50.671Z,14.91
2022-09-20T15:45:26.243Z,14.81
2022-09-20T15:47:57.977Z,14.71
2022-09-20T15:50:28.515Z,14.63
2022-09-20T15:53:00.128Z,14.60
2022-09-20T15:55:30.522Z,14.53
2022-09-20T15:58:00.849Z,14.50
2022-09-20T16:00:36.832Z,14.49
2022-09-20T16:03:07.061Z,14.45
2022-09-20T16:05:37.232Z,14.42
2022-09-20T16:08:07.729Z,14.41
2022-09-20T16:10:39.225Z,14.38
2022-09-20T16:13:10.393Z,14.37
2022-09-20T16:15:45.574Z,14.34
2022-09-20T16:18:28.244Z,14.30
2022-09-20T16:20:58.444Z,14.30
2022-09-20T16:23:28.714Z,14.26
2022-09-20T16:25:58.962Z,14.20
2022-09-20T16:28:29.114Z,14.14
2022-09-20T16:31:03.139Z,14.12
2022-09-20T16:33:34.028Z,14.09
2022-09-20T16:36:08.011Z,14.06
2022-09-20T16:38:38.888Z,14.03
2022-09-20T16:41:09.102Z,14.04
2022-09-20T16:43:39.511Z,14.01
2022-09-20T16:46:13.377Z,13.92
2022-09-20T16:48:47.729Z,13.89
2022-09-20T16:51:18.132Z,13.71
2022-09-20T16:53:48.312Z,13.58
2022-09-20T16:56:25.620Z,13.59
2022-09-20T16:58:56.992Z,13.55
2022-09-20T17:01:30.459Z,13.55
2022-09-20T17:04:05.529Z,13.38
2022-09-20T17:06:37.186Z,13.36
2022-09-20T17:09:09.827Z,13.33
2022-09-20T17:11:41.977Z,13.27
2022-09-20T17:14:12.210Z,13.22
2022-09-20T17:16:47.755Z,13.21
2022-09-20T17:19:19.245Z,13.09
2022-09-20T17:21:52.121Z,13.03
2022-09-20T17:24:26.329Z,12.99
2022-09-20T17:26:56.556Z,12.92
2022-09-20T17:29:27.786Z,12.95
2022-09-20T17:32:01.113Z,12.98
2022-09-20T17:34:31.939Z,12.91
2022-09-20T17:37:03.639Z,12.80
2022-09-20T17:39:33.805Z,12.73
2022-09-20T17:42:04.334Z,12.75
2022-09-20T17:44:36.934Z,12.75
2022-09-20T17:47:10.781Z,12.71
2022-09-20T17:49:41.263Z,12.66
2022-09-20T17:52:12.878Z,12.64
2022-09-20T17:54:43.116Z,12.57
2022-09-20T17:57:13.834Z,12.53
2022-09-20T17:59:44.178Z,12.43
2022-09-20T18:02:17.305Z,12.39
2022-09-20T18:04:47.457Z,12.36
2022-09-20T18:07:17.659Z,12.29
2022-09-20T18:09:47.886Z,12.29
2022-09-20T18:12:21.301Z,12.29
2022-09-20T18:14:51.951Z,12.29
2022-09-20T18:17:24.855Z,12.32
2022-09-20T18:19:55.014Z,12.30
2022-09-20T18:22:25.942Z,12.33
2022-09-20T18:24:56.235Z,12.36
2022-09-20T18:27:26.517Z,12.30
2022-09-20T18:29:56.797Z,12.30
2022-09-20T18:32:30.660Z,12.34
2022-09-20T18:35:00.913Z,12.38
2022-09-20T18:37:31.823Z,12.39
2022-09-20T18:40:02.018Z,12.38
2022-09-20T18:42:32.952Z,12.40
2022-09-20T18:45:03.130Z,12.42
2022-09-20T18:47:36.686Z,12.44
2022-09-20T18:50:12.198Z,12.44
2022-09-20T18:52:42.536Z,12.46
2022-09-20T18:55:14.934Z,12.48
2022-09-20T18:57:45.617Z,12.48
2022-09-20T19:00:17.254Z,12.50
2022-09-20T19:03:10.037Z,12.50
2022-09-20T19:05:44.823Z,12.49
2022-09-20T19:08:28.547Z,12.48
2022-09-20T19:11:04.706Z,12.47
2022-09-20T19:13:43.478Z,12.48
2022-09-20T19:16:23.853Z,12.48
2022-09-20T19:19:20.385Z,12.48
2022-09-20T19:22:00.938Z,12.45
2022-09-20T19:24:58.330Z,12.40
2022-09-20T19:27:31.421Z,12.39
2022-09-20T19:30:02.286Z,12.38
2022-09-20T19:32:34.715Z,12.38
2022-09-20T19:35:11.870Z,12.31
2022-09-20T19:37:54.715Z,12.23
2022-09-20T19:40:33.594Z,12.18
2022-09-20T19:43:23.777Z,12.12
2022-09-20T19:46:02.509Z,12.13
2022-09-20T19:48:40.036Z,12.13
2022-09-20T19:51:17.248Z,12.11
2022-09-20T19:53:48.309Z,12.12
2022-09-20T19:56:27.762Z,12.06
2022-09-20T19:59:01.510Z,12.05
2022-09-20T20:01:35.118Z,12.07
2022-09-20T20:04:06.931Z,12.03
2022-09-20T20:06:48.636Z,12.01
2022-09-20T20:09:25.421Z,12.03
2022-09-20T20:12:03.118Z,12.03
2022-09-20T20:14:41.455Z,12.04
2022-09-20T20:17:26.672Z,12.01
2022-09-20T20:20:08.154Z,11.97
2022-09-20T20:23:18.606Z,11.94
2022-09-20T20:26:00.223Z,11.93
2022-09-20T20:28:30.349Z,11.90
2022-09-20T20:31:02.375Z,11.89
2022-09-20T20:33:33.713Z,11.80
2022-09-20T20:36:06.294Z,11.84
2022-09-20T20:38:40.405Z,11.81
2022-09-20T20:41:13.652Z,11.78
2022-09-20T20:43:47.266Z,11.73
2022-09-20T20:46:19.645Z,11.71
2022-09-20T20:48:50.669Z,11.64
2022-09-20T20:51:23.762Z,11.61
2022-09-20T20:53:58.413Z,11.58
2022-09-20T20:56:32.017Z,11.53
2022-09-20T20:59:02.507Z,11.50
2022-09-20T21:01:34.542Z,11.45
2022-09-20T21:04:09.657Z,11.41
2022-09-20T21:06:41.688Z,11.36
2022-09-20T21:09:14.713Z,11.30
2022-09-20T21:11:46.858Z,11.24
2022-09-20T21:14:17.487Z,11.13
2022-09-20T21:16:47.662Z,11.20
2022-09-20T21:19:19.221Z,11.15
2022-09-20T21:21:50.553Z,11.11
2022-09-20T21:24:24.136Z,11.06
2022-09-20T21:26:56.915Z,11.02
2022-09-20T21:29:27.134Z,10.97
2022-09-20T21:31:57.347Z,10.95
2022-09-20T21:34:27.541Z,10.93
2022-09-20T21:36:57.731Z,10.91
2022-09-20T21:39:30.613Z,10.90
2022-09-20T21:42:00.776Z,10.90
2022-09-20T21:44:31.292Z,10.95
2022-09-20T21:47:01.443Z,10.91
2022-09-20T21:49:31.566Z,10.89
2022-09-20T21:52:01.851Z,10.87
2022-09-20T21:54:34.645Z,10.86
2022-09-20T21:57:04.752Z,10.81
2022-09-20T21:59:35.002Z,10.83
2022-09-20T22:02:05.462Z,10.84
2022-09-20T22:04:35.729Z,10.75
2022-09-20T22:07:06.246Z,10.82
2022-09-20T22:09:40.201Z,10.84
2022-09-20T22:12:10.465Z,10.87
2022-09-20T22:14:40.892Z,10.86
2022-09-20T22:17:11.005Z,10.81
2022-09-20T22:19:41.201Z,10.79
2022-09-20T22:22:11.430Z,10.73
2022-09-20T22:24:44.189Z,10.72
2022-09-20T22:27:14.413Z,10.73
2022-09-20T22:29:47.594Z,10.76
2022-09-20T22:32:17.746Z,10.77
2022-09-20T22:34:47.967Z,10.76
2022-09-20T22:37:18.055Z,10.80
2022-09-20T22:39:53.598Z,10.75
2022-09-20T22:42:23.931Z,10.74
2022-09-20T22:44:56.361Z,10.70
2022-09-20T22:47:26.624Z,10.65
2022-09-20T22:49:59.814Z,10.62
2022-09-20T22:52:30.042Z,10.63
2022-09-20T22:55:02.855Z,10.56
2022-09-20T22:57:33.358Z,10.53
2022-09-20T23:00:04.300Z,10.49
2022-09-20T23:02:34.498Z,10.46
2022-09-20T23:05:09.661Z,10.44
2022-09-20T23:07:40.103Z,10.39
2022-09-20T23:10:15.926Z,10.42
2022-09-20T23:12:46.069Z,10.37
2022-09-20T23:15:16.248Z,10.35
2022-09-20T23:17:46.363Z,10.35
2022-09-20T23:20:17.044Z,10.30
2022-09-20T23:22:50.167Z,10.25
2022-09-20T23:25:22.999Z,10.23
2022-09-20T23:27:53.166Z,10.20
2022-09-20T23:30:23.449Z,10.16
2022-09-20T23:32:56.088Z,10.16
2022-09-20T23:35:28.121Z,10.13
2022-09-20T23:37:59.172Z,10.16
2022-09-20T23:40:32.156Z,10.16
2022-09-20T23:43:02.324Z,10.10
2022-09-20T23:45:32.627Z,10.09
2022-09-20T23:48:06.070Z,10.09
2022-09-20T23:50:36.454Z,10.09
2022-09-20T23:53:06.637Z,10.08
2022-09-20T23:55:39.589Z,10.07
2022-09-20T23:58:09.831Z,10.07
